createdAt,value
2022-11-08T00:02:07.876Z,67.47
2022-11-08T00:05:29.780Z,67.54
2022-11-08T00:08:51.550Z,67.73
2022-11-08T00:12:13.210Z,67.58
2022-11-08T00:15:16.208Z,67.64
2022-11-08T00:18:19.511Z,67.79
2022-11-08T00:21:23.314Z,67.79
2022-11-08T00:24:26.490Z,67.81
2022-11-08T00:27:29.525Z,67.90
2022-11-08T00:30:32.517Z,67.90
2022-11-08T00:33:35.791Z,67.83
2022-11-08T00:36:38.802Z,67.85
2022-11-08T00:39:42.078Z,67.79
2022-11-08T00:42:45.084Z,68.01
2022-11-08T00:45:48.084Z,67.91
2022-11-08T00:48:51.046Z,67.85
2022-11-08T00:51:54.322Z,67.95
2022-11-08T00:54:57.314Z,67.83
2022-11-08T00:58:00.910Z,67.95
2022-11-08T01:01:12.602Z,67.96
2022-11-08T01:04:18.037Z,68.07
2022-11-08T01:07:21.004Z,67.81
2022-11-08T01:10:26.673Z,67.94
2022-11-08T01:13:30.345Z,67.93
2022-11-08T01:16:35.009Z,67.98
2022-11-08T01:19:38.006Z,67.98
2022-11-08T01:22:41.042Z,67.92
2022-11-08T01:25:46.249Z,67.93
2022-11-08T01:28:49.547Z,68.25
2022-11-08T01:31:52.507Z,68.13
2022-11-08T01:34:55.531Z,68.07
2022-11-08T01:37:59.841Z,68.09
2022-11-08T01:41:03.260Z,68.08
2022-11-08T01:44:06.289Z,68.10
2022-11-08T01:47:09.288Z,68.04
2022-11-08T01:50:16.993Z,68.02
2022-11-08T01:53:20.230Z,67.98
2022-11-08T01:56:23.242Z,67.95
2022-11-08T01:59:26.695Z,68.07
2022-11-08T02:02:30.695Z,68.12
2022-11-08T02:05:33.919Z,68.06
2022-11-08T02:08:42.248Z,68.06
2022-11-08T02:11:47.661Z,68.08
2022-11-08T02:14:51.115Z,68.31
2022-11-08T02:17:55.138Z,68.24
2022-11-08T02:21:08.681Z,68.28
2022-11-08T02:24:14.024Z,68.37
2022-11-08T02:27:17.194Z,68.57
2022-11-08T02:30:20.318Z,68.67
2022-11-08T02:33:23.769Z,68.72
2022-11-08T02:36:26.927Z,68.77
2022-11-08T02:39:30.720Z,68.70
2022-11-08T02:42:33.994Z,68.87
2022-11-08T02:45:36.961Z,68.77
2022-11-08T02:48:39.927Z,68.76
2022-11-08T02:51:42.887Z,68.80
2022-11-08T02:54:45.894Z,68.85
2022-11-08T02:57:48.930Z,68.75
2022-11-08T03:00:51.973Z,68.83
2022-11-08T03:03:55.013Z,68.96
2022-11-08T03:06:57.982Z,68.98
2022-11-08T03:10:00.923Z,68.86
2022-11-08T03:13:05.598Z,69.02
2022-11-08T03:16:08.750Z,68.98
2022-11-08T03:19:12.208Z,68.97
2022-11-08T03:22:15.442Z,68.96
2022-11-08T03:25:18.409Z,69.00
2022-11-08T03:28:23.096Z,69.07
2022-11-08T03:31:26.466Z,69.23
2022-11-08T03:34:29.505Z,69.15
2022-11-08T03:37:32.509Z,69.31
2022-11-08T03:40:35.498Z,69.29
2022-11-08T03:43:38.474Z,69.37
2022-11-08T03:46:41.653Z,69.29
2022-11-08T03:49:44.750Z,69.34
2022-11-08T03:52:50.451Z,69.43
2022-11-08T03:55:53.602Z,69.43
2022-11-08T03:58:56.730Z,69.43
2022-11-08T04:01:59.937Z,69.51
2022-11-08T04:05:03.465Z,69.60
2022-11-08T04:08:06.539Z,69.56
2022-11-08T04:11:27.910Z,69.34
2022-11-08T04:14:49.549Z,69.59
2022-11-08T04:18:12.659Z,69.48
2022-11-08T04:21:21.809Z,69.59
2022-11-08T04:24:25.155Z,69.66
2022-11-08T04:27:29.407Z,69.51
2022-11-08T04:30:33.048Z,69.72
2022-11-08T04:33:36.352Z,69.63
2022-11-08T04:36:39.394Z,69.71
2022-11-08T04:39:42.459Z,69.64
2022-11-08T04:42:45.436Z,69.67
2022-11-08T04:45:48.357Z,69.64
2022-11-08T04:48:54.472Z,69.80
2022-11-08T04:51:57.492Z,69.87
2022-11-08T04:55:00.396Z,69.83
2022-11-08T04:58:03.348Z,69.94
2022-11-08T05:01:08.142Z,69.84
2022-11-08T05:04:11.146Z,69.89
2022-11-08T05:07:14.133Z,69.79
2022-11-08T05:10:17.495Z,69.90
2022-11-08T05:13:20.404Z,69.95
2022-11-08T05:16:26.379Z,69.85
2022-11-08T05:19:47.999Z,69.91
2022-11-08T05:23:09.503Z,69.91
2022-11-08T05:26:12.861Z,69.92
2022-11-08T05:29:16.870Z,70.10
2022-11-08T05:32:19.799Z,70.05
2022-11-08T05:35:23.096Z,70.09
2022-11-08T05:38:26.124Z,70.17
2022-11-08T05:41:29.785Z,70.21
2022-11-08T05:44:32.920Z,70.17
2022-11-08T05:47:36.026Z,70.32
2022-11-08T05:50:38.958Z,70.24
2022-11-08T05:53:48.725Z,70.21
2022-11-08T05:56:52.011Z,70.28
2022-11-08T05:59:55.062Z,70.24
2022-11-08T06:02:58.032Z,70.08
2022-11-08T06:06:15.820Z,70.20
2022-11-08T06:09:18.834Z,70.24
2022-11-08T06:12:21.803Z,70.19
2022-11-08T06:15:24.729Z,70.16
2022-11-08T06:18:28.696Z,70.24
2022-11-08T06:21:31.646Z,70.18
2022-11-08T06:24:34.585Z,70.23
2022-11-08T06:27:37.561Z,70.21
2022-11-08T06:30:41.016Z,70.29
2022-11-08T06:33:43.980Z,70.23
2022-11-08T06:36:47.073Z,70.24
2022-11-08T06:39:49.998Z,70.17
2022-11-08T06:42:53.494Z,70.21
2022-11-08T06:46:01.282Z,70.33
2022-11-08T06:49:04.234Z,70.17
2022-11-08T06:52:07.547Z,70.24
2022-11-08T06:55:10.512Z,70.41
2022-11-08T06:58:13.601Z,70.29
2022-11-08T07:01:16.653Z,70.30
2022-11-08T07:04:19.943Z,70.26
2022-11-08T07:07:23.422Z,70.21
2022-11-08T07:10:29.621Z,70.30
2022-11-08T07:13:32.806Z,70.32
2022-11-08T07:16:35.762Z,70.20
2022-11-08T07:19:38.745Z,70.20
2022-11-08T07:22:41.650Z,70.10
2022-11-08T07:25:44.576Z,70.22
2022-11-08T07:28:47.556Z,70.24
2022-11-08T07:31:50.437Z,70.26
2022-11-08T07:34:53.374Z,70.16
2022-11-08T07:37:56.739Z,70.14
2022-11-08T07:41:01.418Z,70.09
2022-11-08T07:44:04.405Z,70.21
2022-11-08T07:47:07.349Z,70.10
2022-11-08T07:50:10.714Z,70.31
2022-11-08T07:53:13.627Z,70.12
2022-11-08T07:56:16.806Z,70.12
2022-11-08T07:59:19.798Z,70.23
2022-11-08T08:02:24.099Z,70.19
2022-11-08T08:05:28.683Z,70.19
2022-11-08T08:11:48.960Z,70.19
2022-11-08T08:14:51.970Z,70.32
2022-11-08T08:17:55.496Z,70.22
2022-11-08T08:20:59.338Z,70.16
2022-11-08T08:24:02.367Z,70.11
2022-11-08T08:27:05.362Z,70.14
2022-11-08T08:30:08.934Z,70.23
2022-11-08T08:33:27.916Z,70.02
2022-11-08T08:36:31.780Z,70.09
2022-11-08T08:39:34.781Z,70.05
2022-11-08T08:42:37.781Z,70.04
2022-11-08T08:45:45.010Z,69.97
2022-11-08T08:48:48.440Z,69.81
2022-11-08T08:51:51.657Z,69.73
2022-11-08T08:54:54.630Z,69.60
2022-11-08T08:57:58.473Z,69.39
2022-11-08T09:04:31.924Z,69.19
2022-11-08T09:07:35.026Z,69.07
2022-11-08T09:10:38.322Z,68.84
2022-11-08T09:13:43.591Z,68.98
2022-11-08T09:16:46.651Z,68.81
2022-11-08T09:19:54.412Z,68.76
2022-11-08T09:23:04.119Z,68.73
2022-11-08T09:26:07.251Z,68.52
2022-11-08T09:29:10.263Z,68.50
2022-11-08T09:32:13.386Z,68.33
2022-11-08T09:35:16.570Z,68.10
2022-11-08T09:38:20.763Z,68.19
2022-11-08T09:41:51.404Z,67.94
2022-11-08T09:45:03.384Z,67.93
2022-11-08T09:48:18.451Z,67.80
2022-11-08T09:51:23.922Z,67.90
2022-11-08T09:54:39.226Z,67.79
2022-11-08T09:58:14.391Z,67.58
2022-11-08T10:01:17.803Z,67.53
2022-11-08T10:04:27.916Z,67.48
2022-11-08T10:07:54.542Z,67.44
2022-11-08T10:11:31.896Z,67.34
2022-11-08T10:14:54.166Z,67.18
2022-11-08T10:18:22.001Z,67.03
2022-11-08T10:21:28.251Z,67.05
2022-11-08T10:24:50.006Z,66.98
2022-11-08T10:27:56.422Z,66.95
2022-11-08T10:30:59.728Z,66.84
2022-11-08T10:34:12.696Z,66.76
2022-11-08T10:37:17.904Z,66.84
2022-11-08T10:40:27.097Z,66.72
2022-11-08T10:43:36.636Z,66.66
2022-11-08T10:46:45.598Z,66.58
2022-11-08T10:49:48.796Z,66.38
2022-11-08T10:53:06.063Z,66.20
2022-11-08T10:56:09.162Z,66.10
2022-11-08T10:59:29.952Z,65.75
2022-11-08T11:02:35.509Z,65.52
2022-11-08T11:05:44.573Z,65.19
2022-11-08T11:08:54.646Z,64.87
2022-11-08T11:12:07.286Z,64.62
2022-11-08T11:15:19.084Z,64.55
2022-11-08T11:18:22.149Z,64.19
2022-11-08T11:21:25.513Z,63.91
2022-11-08T11:24:28.694Z,63.76
2022-11-08T11:27:36.436Z,63.52
2022-11-08T11:30:42.611Z,63.41
2022-11-08T11:33:46.737Z,62.85
2022-11-08T11:37:11.129Z,62.79
2022-11-08T11:40:19.510Z,62.64
2022-11-08T11:43:43.109Z,62.48
2022-11-08T11:46:53.358Z,62.31
2022-11-08T11:50:12.241Z,61.94
2022-11-08T11:53:39.495Z,61.60
2022-11-08T11:57:16.894Z,61.37
2022-11-08T12:00:19.987Z,60.94
2022-11-08T12:03:31.505Z,60.69
2022-11-08T12:06:50.343Z,60.46
2022-11-08T12:10:19.887Z,60.42
2022-11-08T12:13:31.621Z,60.23
2022-11-08T12:16:43.037Z,60.28
2022-11-08T12:20:12.507Z,60.13
2022-11-08T12:23:30.731Z,60.10
2022-11-08T12:26:36.743Z,60.11
2022-11-08T12:30:00.290Z,59.93
2022-11-08T12:33:03.265Z,59.79
2022-11-08T12:36:32.507Z,59.72
2022-11-08T12:39:47.072Z,59.56
2022-11-08T12:43:23.070Z,59.43
2022-11-08T12:46:30.888Z,59.26
2022-11-08T12:49:40.572Z,59.31
2022-11-08T12:52:57.899Z,59.38
2022-11-08T12:56:04.158Z,59.27
2022-11-08T12:59:21.439Z,59.44
2022-11-08T13:02:31.944Z,59.28
2022-11-08T13:05:40.296Z,59.28
2022-11-08T13:09:12.837Z,59.30
2022-11-08T13:12:43.237Z,59.27
2022-11-08T13:16:15.888Z,59.23
2022-11-08T13:19:29.695Z,59.29
2022-11-08T13:22:32.715Z,59.31
2022-11-08T13:25:36.625Z,59.41
2022-11-08T13:28:46.387Z,59.46
2022-11-08T13:32:01.845Z,59.57
2022-11-08T13:35:30.637Z,59.52
2022-11-08T13:39:05.967Z,59.44
2022-11-08T13:42:18.003Z,59.57
2022-11-08T13:45:29.790Z,59.49
2022-11-08T13:48:36.722Z,59.53
2022-11-08T13:51:41.214Z,59.51
2022-11-08T13:54:53.500Z,59.48
2022-11-08T13:58:01.244Z,59.55
2022-11-08T14:01:23.807Z,59.59
2022-11-08T14:04:40.879Z,59.57
2022-11-08T14:07:50.914Z,59.61
2022-11-08T14:15:24.967Z,59.73
2022-11-08T14:18:31.430Z,59.78
2022-11-08T14:21:36.441Z,59.78
2022-11-08T14:24:39.850Z,59.80
2022-11-08T14:27:42.940Z,59.83
2022-11-08T14:30:51.210Z,59.86
2022-11-08T14:33:55.535Z,59.87
2022-11-08T14:37:00.174Z,59.91
2022-11-08T14:40:04.491Z,59.91
2022-11-08T14:43:12.129Z,59.93
2022-11-08T14:46:38.026Z,59.98
2022-11-08T14:49:41.049Z,60.11
2022-11-08T14:52:44.294Z,60.11
2022-11-08T14:55:47.585Z,60.26
2022-11-08T14:58:53.245Z,60.18
2022-11-08T15:01:56.561Z,60.31
2022-11-08T15:04:59.725Z,60.29
2022-11-08T15:08:06.628Z,60.46
2022-11-08T15:11:12.974Z,60.54
2022-11-08T15:14:23.382Z,60.56
2022-11-08T15:17:35.387Z,60.67
2022-11-08T15:20:39.305Z,60.64
2022-11-08T15:23:53.406Z,60.76
2022-11-08T15:27:16.770Z,60.85
2022-11-08T15:30:34.776Z,60.95
2022-11-08T15:33:40.887Z,60.98
2022-11-08T15:36:44.049Z,61.11
2022-11-08T15:39:47.367Z,61.10
2022-11-08T15:42:53.404Z,61.33
2022-11-08T15:45:56.979Z,61.46
2022-11-08T15:49:00.150Z,61.54
2022-11-08T15:52:05.727Z,61.50
2022-11-08T15:55:12.768Z,61.76
2022-11-08T15:58:26.992Z,61.62
2022-11-08T16:01:30.104Z,61.70
2022-11-08T16:04:33.132Z,61.70
2022-11-08T16:07:36.125Z,61.64
2022-11-08T16:10:42.568Z,61.61
2022-11-08T16:13:45.660Z,61.73
2022-11-08T16:16:48.916Z,61.95
2022-11-08T16:19:51.864Z,61.88
2022-11-08T16:22:56.866Z,61.97
2022-11-08T16:26:01.035Z,62.10
2022-11-08T16:29:04.946Z,62.16
2022-11-08T16:32:09.913Z,62.08
2022-11-08T16:35:22.223Z,62.16
2022-11-08T16:38:28.856Z,62.27
2022-11-08T16:41:31.756Z,62.24
2022-11-08T16:44:34.689Z,62.21
2022-11-08T16:47:37.684Z,62.15
2022-11-08T16:50:40.816Z,62.34
2022-11-08T16:53:44.320Z,62.46
2022-11-08T16:56:47.319Z,62.40
2022-11-08T16:59:50.256Z,62.49
2022-11-08T17:02:53.394Z,62.46
2022-11-08T17:05:57.190Z,62.59
2022-11-08T17:09:00.109Z,62.53
2022-11-08T17:12:03.578Z,62.46
2022-11-08T17:15:11.479Z,62.71
2022-11-08T17:18:17.112Z,62.89
2022-11-08T17:24:44.629Z,63.13
2022-11-08T17:27:50.032Z,63.33
2022-11-08T17:30:53.006Z,63.21
2022-11-08T17:33:56.074Z,63.28
2022-11-08T17:36:59.141Z,63.44
2022-11-08T17:40:03.502Z,63.58
2022-11-08T17:43:06.433Z,63.84
2022-11-08T17:46:11.228Z,64.05
2022-11-08T17:49:14.338Z,64.26
2022-11-08T17:52:17.415Z,64.24
2022-11-08T17:55:20.507Z,64.27
2022-11-08T17:58:24.032Z,64.41
2022-11-08T18:01:31.686Z,64.29
2022-11-08T18:04:36.597Z,64.58
2022-11-08T18:07:53.212Z,64.46
2022-11-08T18:11:01.973Z,64.46
2022-11-08T18:14:08.012Z,64.48
2022-11-08T18:17:12.500Z,64.52
2022-11-08T18:20:15.552Z,64.49
2022-11-08T18:23:19.285Z,64.49
2022-11-08T18:26:22.758Z,64.52
2022-11-08T18:29:25.693Z,64.47
2022-11-08T18:32:29.064Z,64.60
2022-11-08T18:35:32.422Z,64.31
2022-11-08T18:38:36.313Z,64.48
2022-11-08T18:41:39.418Z,64.44
2022-11-08T18:44:42.423Z,64.39
2022-11-08T18:47:45.540Z,64.45
2022-11-08T18:50:51.704Z,64.31
2022-11-08T18:53:54.809Z,64.37
2022-11-08T18:56:57.859Z,64.33
2022-11-08T19:00:01.464Z,64.38
2022-11-08T19:03:04.668Z,64.54
2022-11-08T19:06:08.560Z,64.43
2022-11-08T19:09:11.722Z,64.60
2022-11-08T19:12:14.743Z,64.43
2022-11-08T19:15:17.808Z,64.68
2022-11-08T19:18:20.789Z,64.53
2022-11-08T19:21:26.573Z,64.55
2022-11-08T19:24:29.765Z,64.53
2022-11-08T19:27:33.191Z,64.64
2022-11-08T19:30:36.124Z,64.60
2022-11-08T19:33:39.100Z,64.54
2022-11-08T19:36:45.039Z,64.73
2022-11-08T19:39:48.417Z,64.78
2022-11-08T19:42:52.193Z,64.79
2022-11-08T19:45:55.565Z,64.69
2022-11-08T19:49:03.896Z,64.84
2022-11-08T19:52:06.973Z,64.90
2022-11-08T19:55:09.952Z,64.70
2022-11-08T19:58:12.862Z,64.77
2022-11-08T20:01:21.482Z,64.77
2022-11-08T20:04:24.492Z,64.90
2022-11-08T20:07:27.411Z,64.99
2022-11-08T20:10:30.572Z,65.02
2022-11-08T20:13:33.629Z,65.10
2022-11-08T20:16:40.961Z,65.10
2022-11-08T20:19:44.347Z,65.28
2022-11-08T20:22:48.306Z,65.32
2022-11-08T20:25:51.395Z,65.27
2022-11-08T20:28:56.666Z,65.34
2022-11-08T20:32:00.432Z,65.37
2022-11-08T20:35:04.235Z,65.43
2022-11-08T20:38:07.436Z,65.37
2022-11-08T20:41:12.812Z,65.43
2022-11-08T20:44:16.470Z,65.51
2022-11-08T20:47:20.159Z,65.68
2022-11-08T20:50:23.110Z,65.76
2022-11-08T20:53:27.279Z,65.68
2022-11-08T20:56:30.503Z,65.78
2022-11-08T20:59:33.455Z,65.79
2022-11-08T21:02:36.432Z,65.80
2022-11-08T21:05:39.543Z,65.75
2022-11-08T21:09:00.816Z,65.85
2022-11-08T21:12:06.141Z,65.90
2022-11-08T21:15:09.584Z,65.88
2022-11-08T21:18:13.100Z,66.01
2022-11-08T21:21:18.798Z,65.94
2022-11-08T21:24:21.810Z,65.98
2022-11-08T21:27:29.598Z,66.96
2022-11-08T21:30:33.136Z,66.72
2022-11-08T21:33:37.396Z,66.40
2022-11-08T21:36:40.594Z,66.21
2022-11-08T21:39:43.839Z,66.31
2022-11-08T21:42:48.855Z,66.33
2022-11-08T21:45:52.164Z,66.50
2022-11-08T21:48:58.798Z,66.30
2022-11-08T21:52:03.668Z,66.46
2022-11-08T21:55:07.164Z,66.48
2022-11-08T21:58:10.332Z,66.48
2022-11-08T22:01:13.594Z,66.63
2022-11-08T22:04:16.728Z,66.53
2022-11-08T22:07:19.962Z,66.58
2022-11-08T22:10:23.166Z,66.47
2022-11-08T22:13:26.371Z,66.69
2022-11-08T22:16:29.509Z,66.70
2022-11-08T22:19:32.709Z,66.53
2022-11-08T22:22:35.846Z,66.71
2022-11-08T22:25:38.934Z,66.81
2022-11-08T22:28:42.109Z,66.76
2022-11-08T22:31:45.427Z,66.78
2022-11-08T22:34:48.544Z,66.91
2022-11-08T22:37:51.652Z,67.06
2022-11-08T22:40:54.767Z,66.92
2022-11-08T22:43:57.913Z,67.00
2022-11-08T22:47:01.057Z,67.09
2022-11-08T22:50:05.239Z,66.99
2022-11-08T22:53:08.388Z,67.16
2022-11-08T22:56:12.063Z,67.29
2022-11-08T22:59:15.391Z,67.34
2022-11-08T23:02:18.567Z,67.14
2022-11-08T23:05:21.678Z,67.26
2022-11-08T23:08:26.626Z,67.15
2022-11-08T23:11:48.272Z,67.17
2022-11-08T23:15:09.968Z,67.23
2022-11-08T23:18:13.089Z,67.22
2022-11-08T23:21:34.623Z,67.12
2022-11-08T23:24:38.156Z,67.19
2022-11-08T23:28:00.138Z,67.27
2022-11-08T23:31:21.533Z,67.37
2022-11-08T23:34:24.489Z,67.32
2022-11-08T23:37:28.052Z,67.37
2022-11-08T23:40:49.756Z,67.46
2022-11-08T23:44:11.823Z,67.41
2022-11-08T23:47:14.830Z,67.46
2022-11-08T23:50:18.393Z,67.20
2022-11-08T23:53:25.188Z,67.35
2022-11-08T23:56:28.912Z,67.46
2022-11-08T23:59:31.975Z,67.27
